Terminal Aerodrome Forecast
Issued by NWS

Home | Current Version | Previous Version | Text Only | Print | Product List | Glossary Off
Versions: 1 2 3 4 5 6 7 8 9 10 11 12 13 14 15 16 17 18 19 20 21
000 FTUS41 KBOX 210524 TAFBED TAF KBED 210524Z 2106/2206 25005KT P6SM SKC FM211500 32010KT P6SM SCT045 FM220000 33006KT P6SM SKC FM220300 VRB03KT P6SM SKC=

USA.gov is the U.S. government's official web portal to all federal, state and local government web resources and services.